Time;durP1;ratioP1;P1;durP2;ratioP2;P2;SDS_P1;SDS_P2;PMS_P1;PMS_P2;Temp;Humidity;BMP_temperature;BMP_pressure;BME280_temperature;BME280_humidity;BME280_pressure;Samples;Min_cycle;Max_cycle;Signal;HPM_P1;HPM_P2
2023/10/22 00:01:43;;;;;;;;;;;;;;;11.38;100.00;99675.91;5020122;28;19973;-75
2023/10/22 00:04:08;;;;;;;;;;;;;;;11.40;100.00;99681.03;5027148;28;19940;-75
2023/10/22 00:06:33;;;;;;;;;;;;;;;11.39;100.00;99679.34;5052166;28;20363;-75
2023/10/22 00:08:58;;;;;;;;;;;;;;;11.39;100.00;99689.78;5034219;28;19918;-75
2023/10/22 00:11:23;;;;;;;;;;;;;;;11.36;100.00;99690.78;5021288;28;19917;-75
2023/10/22 00:13:48;;;;;;;;;;;;;;;11.37;100.00;99694.22;5029288;28;19924;-75
2023/10/22 00:16:14;;;;;;;;;;;;;;;11.40;100.00;99701.91;5020078;28;19917;-75
2023/10/22 00:18:39;;;;;;;;;;;;;;;11.43;100.00;99702.63;5010664;28;20012;-75
2023/10/22 00:21:07;;;;;;;;;;;;;;;11.47;100.00;99703.31;5030185;28;20288;-75
2023/10/22 00:23:33;;;;;;;;;;;;;;;11.52;100.00;99711.81;5008012;28;20003;-75
2023/10/22 00:25:58;;;;;;;;;;;;;;;11.55;100.00;99716.88;5027750;28;20008;-75
2023/10/22 00:28:23;;;;;;;;;;;;;;;11.61;100.00;99713.16;5027969;28;20016;-75
2023/10/22 00:30:49;;;;;;;;;;;;;;;11.66;100.00;99713.78;5020639;28;19952;-75
2023/10/22 00:33:14;;;;;;;;;;;;;;;11.72;100.00;99726.56;5014836;28;20349;-75
2023/10/22 00:35:39;;;;;;;;;;;;;;;11.75;100.00;99729.03;5036496;28;19917;-75
2023/10/22 00:38:04;;;;;;;;;;;;;;;11.80;100.00;99727.03;5042265;28;19966;-75
2023/10/22 00:40:29;;;;;;;;;;;;;;;11.84;100.00;99735.59;5017497;28;20440;-75
2023/10/22 00:42:55;;;;;;;;;;;;;;;11.85;100.00;99738.16;5055196;28;19915;-75
2023/10/22 00:45:20;;;;;;;;;;;;;;;11.87;100.00;99749.41;5018003;28;19913;-75
2023/10/22 00:47:46;;;;;;;;;;;;;;;11.84;100.00;99741.72;5045095;28;19960;-75
2023/10/22 00:50:11;;;;;;;;;;;;;;;11.85;100.00;99748.63;5021864;28;19924;-75
2023/10/22 00:52:36;;;;;;;;;;;;;;;11.81;100.00;99744.41;5047800;28;19921;-75
2023/10/22 00:55:02;;;;;;;;;;;;;;;11.83;100.00;99752.16;5033209;28;19925;-75
2023/10/22 00:57:29;;;;;;;;;;;;;;;11.87;100.00;99769.41;5048805;28;19933;-75
2023/10/22 00:59:55;;;;;;;;;;;;;;;11.91;100.00;99760.56;5031986;28;19995;-75
2023/10/22 01:02:20;;;;;;;;;;;;;;;11.93;100.00;99758.69;5049483;28;20011;-75
2023/10/22 01:04:45;;;;;;;;;;;;;;;11.98;100.00;99753.28;5032610;28;19970;-75
2023/10/22 01:07:10;;;;;;;;;;;;;;;11.99;100.00;99755.81;5051617;28;19917;-75
2023/10/22 01:09:35;;;;;;;;;;;;;;;12.03;100.00;99759.13;5038375;28;19924;-75
2023/10/22 01:12:05;;;;;;;;;;;;;;;12.05;100.00;99757.28;5020305;28;19920;-75
2023/10/22 01:14:30;;;;;;;;;;;;;;;12.06;100.00;99764.19;5012256;28;19952;-75
2023/10/22 01:16:56;;;;;;;;;;;;;;;12.05;100.00;99772.97;5024798;28;19951;-75
2023/10/22 01:19:22;;;;;;;;;;;;;;;12.07;100.00;99771.13;5011106;28;19969;-75
2023/10/22 01:21:47;;;;;;;;;;;;;;;12.06;100.00;99774.66;5043228;28;20376;-75
2023/10/22 01:24:13;;;;;;;;;;;;;;;12.07;100.00;99778.97;5010777;28;19918;-75
2023/10/22 01:26:44;;;;;;;;;;;;;;;12.04;100.00;99773.88;4998082;28;19985;-74
2023/10/22 01:29:10;;;;;;;;;;;;;;;12.02;100.00;99794.84;5010770;28;19922;-75
2023/10/22 01:31:36;;;;;;;;;;;;;;;12.03;100.00;99795.69;5037932;28;19917;-75
2023/10/22 01:34:01;;;;;;;;;;;;;;;12.02;100.00;99792.22;5024342;28;20322;-75
2023/10/22 01:36:26;;;;;;;;;;;;;;;11.95;100.00;99799.50;5020160;28;19913;-74
2023/10/22 01:38:51;;;;;;;;;;;;;;;11.85;100.00;99811.28;5020968;28;19939;-74
2023/10/22 01:41:16;;;;;;;;;;;;;;;11.73;100.00;99814.41;5010438;28;19917;-74
2023/10/22 01:43:42;;;;;;;;;;;;;;;11.62;100.00;99829.72;5019356;28;20292;-74
2023/10/22 01:46:07;;;;;;;;;;;;;;;11.46;100.00;99837.34;5028461;28;19920;-75
2023/10/22 01:48:32;;;;;;;;;;;;;;;11.32;100.00;99840.56;5030269;28;20297;-75
2023/10/22 01:50:57;;;;;;;;;;;;;;;11.21;100.00;99837.53;5028201;28;19921;-75
2023/10/22 01:53:22;;;;;;;;;;;;;;;11.14;100.00;99847.38;5046243;28;19923;-74
2023/10/22 01:55:48;;;;;;;;;;;;;;;11.08;100.00;99858.06;5028128;28;20368;-74
2023/10/22 01:58:13;;;;;;;;;;;;;;;11.05;100.00;99855.59;5035567;28;20278;-75
2023/10/22 02:00:38;;;;;;;;;;;;;;;10.98;100.00;99860.19;5030180;28;19917;-75
2023/10/22 02:03:04;;;;;;;;;;;;;;;10.93;100.00;99856.94;5035907;28;19952;-75
2023/10/22 02:05:32;;;;;;;;;;;;;;;10.90;100.00;99872.72;5036973;28;19948;-75
2023/10/22 02:07:58;;;;;;;;;;;;;;;10.89;100.00;99871.03;5029110;28;19917;-75
2023/10/22 02:10:23;;;;;;;;;;;;;;;10.86;100.00;99876.38;5032585;28;19915;-75
2023/10/22 02:12:48;;;;;;;;;;;;;;;10.83;100.00;99881.69;5022773;28;19917;-76
2023/10/22 02:15:13;;;;;;;;;;;;;;;10.85;100.00;99889.44;5031585;28;19917;-75
2023/10/22 02:17:38;;;;;;;;;;;;;;;10.85;100.00;99887.69;5029880;28;19971;-75
2023/10/22 02:20:08;;;;;;;;;;;;;;;10.81;100.00;99891.31;5016214;28;19930;-75
2023/10/22 02:22:34;;;;;;;;;;;;;;;10.82;100.00;99903.44;5020184;28;19969;-75
2023/10/22 02:24:59;;;;;;;;;;;;;;;10.79;100.00;99898.38;5051905;28;19921;-75
2023/10/22 02:27:24;;;;;;;;;;;;;;;10.78;100.00;99902.72;5037557;28;20268;-75
2023/10/22 02:29:49;;;;;;;;;;;;;;;10.78;100.00;99910.53;5021040;28;20009;-75
2023/10/22 02:32:15;;;;;;;;;;;;;;;10.77;100.00;99905.41;5026290;28;19924;-75
2023/10/22 02:34:40;;;;;;;;;;;;;;;10.77;100.00;99919.28;5014882;28;19923;-75
2023/10/22 02:37:05;;;;;;;;;;;;;;;10.74;100.00;99929.81;5043368;28;19917;-75
2023/10/22 02:39:31;;;;;;;;;;;;;;;10.74;100.00;99929.81;5027427;28;19963;-75
2023/10/22 02:41:56;;;;;;;;;;;;;;;10.73;100.00;99937.72;5044657;28;19916;-76
2023/10/22 02:44:22;;;;;;;;;;;;;;;10.70;100.00;99936.06;5030519;28;19921;-75
2023/10/22 02:46:47;;;;;;;;;;;;;;;10.69;100.00;99946.53;5044635;28;19936;-75
2023/10/22 02:49:12;;;;;;;;;;;;;;;10.67;100.00;99954.44;5028889;28;19941;-75
2023/10/22 02:51:37;;;;;;;;;;;;;;;10.62;100.00;99951.13;5044736;28;19917;-75
2023/10/22 02:54:03;;;;;;;;;;;;;;;10.60;100.00;99959.94;5031891;28;20000;-75
2023/10/22 02:56:28;;;;;;;;;;;;;;;10.61;100.00;99962.47;5048522;28;19915;-75
2023/10/22 02:58:53;;;;;;;;;;;;;;;10.61;100.00;99972.91;5028467;28;19918;-75
2023/10/22 03:01:18;;;;;;;;;;;;;;;10.60;100.00;99968.63;5047920;28;19920;-75
2023/10/22 03:03:44;;;;;;;;;;;;;;;10.59;100.00;99977.31;5031272;28;19949;-75
2023/10/22 03:06:10;;;;;;;;;;;;;;;10.62;100.00;99989.38;5036470;28;20285;-75
2023/10/22 03:08:36;;;;;;;;;;;;;;;10.60;100.00;99991.22;5044042;28;19924;-75
2023/10/22 03:11:02;;;;;;;;;;;;;;;10.55;100.00;99997.44;5029381;28;20007;-75
2023/10/22 03:13:27;;;;;;;;;;;;;;;10.57;100.00;99997.41;5054345;28;20371;-75
2023/10/22 03:15:53;;;;;;;;;;;;;;;10.56;100.00;100006.09;5022382;28;19917;-75
2023/10/22 03:18:19;;;;;;;;;;;;;;;10.52;100.00;100007.13;5058076;28;19918;-75
2023/10/22 03:20:44;;;;;;;;;;;;;;;10.44;100.00;99996.16;5023026;28;19943;-74
2023/10/22 03:23:09;;;;;;;;;;;;;;;10.46;100.00;100016.03;5024340;28;19973;-75
2023/10/22 03:25:34;;;;;;;;;;;;;;;10.41;100.00;100025.75;5030902;28;20296;-75
2023/10/22 03:28:00;;;;;;;;;;;;;;;10.37;100.00;100045.03;5050859;28;19917;-75
2023/10/22 03:30:25;;;;;;;;;;;;;;;10.34;100.00;100034.72;5035914;28;19924;-75
2023/10/22 03:32:51;;;;;;;;;;;;;;;10.35;100.00;100045.97;5013980;28;20286;-75
2023/10/22 03:35:16;;;;;;;;;;;;;;;10.30;100.00;100051.34;5010908;28;19957;-75
2023/10/22 03:37:41;;;;;;;;;;;;;;;10.27;100.00;100067.09;5023910;28;19917;-75
2023/10/22 03:40:07;;;;;;;;;;;;;;;10.23;100.00;100065.44;5022657;28;19924;-75
2023/10/22 03:42:33;;;;;;;;;;;;;;;10.18;100.00;100075.19;5046625;28;19921;-75
2023/10/22 03:44:59;;;;;;;;;;;;;;;10.13;100.00;100085.75;5021728;28;20330;-75
2023/10/22 03:47:25;;;;;;;;;;;;;;;10.06;100.00;100084.25;5039002;28;20250;-75
2023/10/22 03:49:50;;;;;;;;;;;;;;;10.01;100.00;100089.63;5013664;28;19925;-75
2023/10/22 03:52:15;;;;;;;;;;;;;;;9.97;100.00;100101.06;5021838;28;19913;-75
2023/10/22 03:54:40;;;;;;;;;;;;;;;9.97;100.00;100100.16;5012978;28;19970;-74
2023/10/22 03:57:05;;;;;;;;;;;;;;;9.99;100.00;100103.59;5069986;28;20303;-75
2023/10/22 03:59:31;;;;;;;;;;;;;;;9.99;100.00;100109.63;5046614;28;19917;-75
2023/10/22 04:01:56;;;;;;;;;;;;;;;10.01;100.00;100104.41;5045551;28;20315;-75
2023/10/22 04:04:21;;;;;;;;;;;;;;;10.01;100.00;100109.59;5025835;28;20004;-75
2023/10/22 04:06:47;;;;;;;;;;;;;;;9.99;100.00;100127.88;5012104;28;19970;-74
2023/10/22 04:09:12;;;;;;;;;;;;;;;9.97;100.00;100132.28;5027227;28;19998;-75
2023/10/22 04:11:37;;;;;;;;;;;;;;;9.94;100.00;100139.31;5007154;28;20285;-75
2023/10/22 04:14:02;;;;;;;;;;;;;;;9.94;100.00;100139.31;5015824;28;19928;-75
2023/10/22 04:16:27;;;;;;;;;;;;;;;9.92;100.00;100139.38;5043682;28;19985;-75
2023/10/22 04:18:53;;;;;;;;;;;;;;;9.89;100.00;100144.69;5057468;28;19923;-75
2023/10/22 04:21:18;;;;;;;;;;;;;;;9.88;100.00;100145.59;5066989;28;19917;-75
2023/10/22 04:23:43;;;;;;;;;;;;;;;9.86;100.00;100155.19;5051781;28;19920;-74
2023/10/22 04:26:12;;;;;;;;;;;;;;;9.86;100.00;100160.41;5055572;28;20514;-75
2023/10/22 04:28:37;;;;;;;;;;;;;;;9.85;100.00;100163.91;5053058;28;19924;-75
2023/10/22 04:31:02;;;;;;;;;;;;;;;9.83;100.00;100170.91;5053246;28;19924;-75
2023/10/22 04:33:28;;;;;;;;;;;;;;;9.80;100.00;100164.03;5031371;28;19927;-75
2023/10/22 04:35:53;;;;;;;;;;;;;;;9.73;100.00;100175.56;5018155;28;19978;-75
2023/10/22 04:38:18;;;;;;;;;;;;;;;9.63;100.00;100174.13;5034203;28;19924;-74
2023/10/22 04:40:43;;;;;;;;;;;;;;;9.55;100.00;100176.97;5023617;28;19985;-75
2023/10/22 04:43:09;;;;;;;;;;;;;;;9.49;100.00;100187.56;5035948;28;19917;-74
2023/10/22 04:45:34;;;;;;;;;;;;;;;9.43;100.00;100192.94;5019760;28;19924;-75
2023/10/22 04:47:59;;;;;;;;;;;;;;;9.39;100.00;100201.72;5039941;28;19923;-75
2023/10/22 04:50:25;;;;;;;;;;;;;;;9.36;100.00;100201.81;5020887;28;19918;-75
2023/10/22 04:52:51;;;;;;;;;;;;;;;9.29;100.00;100205.50;5028324;28;19919;-75
2023/10/22 04:55:16;;;;;;;;;;;;;;;9.25;100.00;100206.47;5017546;28;20364;-75
2023/10/22 04:57:42;;;;;;;;;;;;;;;9.20;100.00;100217.00;5030951;28;19925;-74
2023/10/22 05:00:08;;;;;;;;;;;;;;;9.18;100.00;100212.72;5035455;28;19940;-75
2023/10/22 05:02:34;;;;;;;;;;;;;;;9.14;100.00;100215.41;5021965;28;19932;-75
2023/10/22 05:04:59;;;;;;;;;;;;;;;9.11;100.00;100222.44;5016745;28;19917;-75
2023/10/22 05:07:24;;;;;;;;;;;;;;;9.09;100.00;100229.44;5066905;28;19921;-75
2023/10/22 05:09:50;;;;;;;;;;;;;;;9.06;100.00;100230.38;5044648;28;19917;-75
2023/10/22 05:12:15;;;;;;;;;;;;;;;9.02;100.00;100238.28;5021855;28;19946;-74
2023/10/22 05:14:40;;;;;;;;;;;;;;;9.00;100.00;100238.34;5040710;28;19924;-75
2023/10/22 05:17:06;;;;;;;;;;;;;;;8.99;100.00;100246.16;5018686;28;19949;-74
2023/10/22 05:19:31;;;;;;;;;;;;;;;8.97;100.00;100240.19;5041077;28;20349;-75
2023/10/22 05:21:56;;;;;;;;;;;;;;;8.94;100.00;100246.31;5018012;28;19917;-74
2023/10/22 05:24:22;;;;;;;;;;;;;;;8.90;100.00;100252.47;5044076;28;19921;-74
2023/10/22 05:26:47;;;;;;;;;;;;;;;8.87;100.00;100257.75;5018069;28;20306;-75
2023/10/22 05:29:12;;;;;;;;;;;;;;;8.82;100.00;100272.59;5043258;28;19929;-75
2023/10/22 05:31:37;;;;;;;;;;;;;;;8.80;100.00;100271.81;5030804;28;19921;-74
2023/10/22 05:34:02;;;;;;;;;;;;;;;8.77;100.00;100271.88;5011762;28;20114;-74
2023/10/22 05:36:28;;;;;;;;;;;;;;;8.73;100.00;100270.22;5012683;28;19959;-75
2023/10/22 05:38:53;;;;;;;;;;;;;;;8.69;100.00;100274.66;5018072;28;20009;-75
2023/10/22 05:41:21;;;;;;;;;;;;;;;8.66;100.00;100267.81;5020360;28;19925;-75
2023/10/22 05:43:46;;;;;;;;;;;;;;;8.64;100.00;100279.13;5038588;28;20031;-74
2023/10/22 05:46:11;;;;;;;;;;;;;;;8.62;100.00;100288.69;5021198;28;20011;-74
2023/10/22 05:48:37;;;;;;;;;;;;;;;8.59;100.00;100291.38;5038544;28;19941;-74
2023/10/22 05:51:02;;;;;;;;;;;;;;;8.57;100.00;100294.00;5027996;28;20368;-75
2023/10/22 05:53:28;;;;;;;;;;;;;;;8.55;100.00;100298.38;5040847;28;19974;-75
2023/10/22 05:55:57;;;;;;;;;;;;;;;8.52;100.00;100298.44;5027412;28;19924;-75
2023/10/22 05:58:23;;;;;;;;;;;;;;;8.52;100.00;100310.59;5043477;28;20373;-75
2023/10/22 06:00:48;;;;;;;;;;;;;;;8.48;100.00;100317.59;5027209;28;19924;-74
2023/10/22 06:03:13;;;;;;;;;;;;;;;8.47;100.00;100320.22;5046266;28;19923;-75
2023/10/22 06:05:39;;;;;;;;;;;;;;;8.44;100.00;100314.22;5038343;28;19916;-74
2023/10/22 06:08:04;;;;;;;;;;;;;;;8.42;100.00;100326.38;5072325;28;20318;-75
2023/10/22 06:10:29;;;;;;;;;;;;;;;8.40;100.00;100333.38;5033664;28;19933;-74
2023/10/22 06:12:54;;;;;;;;;;;;;;;8.38;100.00;100329.94;5033064;28;20594;-74
2023/10/22 06:15:20;;;;;;;;;;;;;;;8.38;100.00;100335.16;5036974;28;19921;-74
2023/10/22 06:17:45;;;;;;;;;;;;;;;8.44;100.00;100347.16;5023373;28;19921;-74
2023/10/22 06:20:10;;;;;;;;;;;;;;;8.52;100.00;100350.41;5052955;28;20005;-74
2023/10/22 06:22:35;;;;;;;;;;;;;;;8.58;100.00;100352.88;5024491;28;19917;-74
2023/10/22 06:25:01;;;;;;;;;;;;;;;8.66;100.00;100355.28;5046042;28;19924;-74
2023/10/22 06:27:26;;;;;;;;;;;;;;;8.73;100.00;100367.28;5020462;28;19967;-75
2023/10/22 06:29:53;;;;;;;;;;;;;;;8.80;100.00;100360.19;5022228;28;20361;-74
2023/10/22 06:32:18;;;;;;;;;;;;;;;8.86;100.00;100370.41;5033543;28;19916;-75
2023/10/22 06:34:44;;;;;;;;;;;;;;;8.90;100.00;100380.72;5019198;28;20306;-74
2023/10/22 06:37:09;;;;;;;;;;;;;;;8.95;100.00;100385.78;5024341;28;20496;-75
2023/10/22 06:39:34;;;;;;;;;;;;;;;9.00;100.00;100391.75;5041380;28;19924;-74
2023/10/22 06:42:01;;;;;;;;;;;;;;;9.04;100.00;100388.16;5024318;28;19923;-75
2023/10/22 06:44:26;;;;;;;;;;;;;;;9.11;100.00;100400.13;5039901;28;20428;-75
2023/10/22 06:46:51;;;;;;;;;;;;;;;9.17;100.00;100387.88;5021488;28;19945;-74
2023/10/22 06:49:16;;;;;;;;;;;;;;;9.21;100.00;100407.72;5042438;28;19919;-74
2023/10/22 06:51:41;;;;;;;;;;;;;;;9.25;100.00;100415.38;5025368;28;20382;-75
2023/10/22 06:54:07;;;;;;;;;;;;;;;9.30;100.00;100415.28;5043125;28;19917;-74
2023/10/22 06:56:32;;;;;;;;;;;;;;;9.35;100.00;100424.69;5024017;28;19943;-74
2023/10/22 06:58:58;;;;;;;;;;;;;;;9.40;100.00;100428.91;5043291;28;19921;-75
2023/10/22 07:01:23;;;;;;;;;;;;;;;9.42;100.00;100430.59;5028321;28;19943;-74
2023/10/22 07:03:49;;;;;;;;;;;;;;;9.44;100.00;100433.16;5038101;28;20780;-74
2023/10/22 07:06:14;;;;;;;;;;;;;;;9.47;100.00;100433.06;5008482;28;20378;-74
2023/10/22 07:08:40;;;;;;;;;;;;;;;9.49;100.00;100437.34;5044073;28;19923;-75
2023/10/22 07:11:05;;;;;;;;;;;;;;;9.49;100.00;100442.56;5029737;28;19956;-75
2023/10/22 07:13:30;;;;;;;;;;;;;;;9.45;100.00;100440.06;5047204;28;19923;-74
2023/10/22 07:15:55;;;;;;;;;;;;;;;9.41;100.00;100444.47;5028509;28;19958;-75
2023/10/22 07:18:21;;;;;;;;;;;;;;;9.32;100.00;100453.38;5042023;28;19912;-75
2023/10/22 07:20:47;;;;;;;;;;;;;;;9.27;100.00;100459.59;5029655;28;19921;-74
2023/10/22 07:23:12;;;;;;;;;;;;;;;9.23;100.00;100469.22;5038714;28;20029;-75
2023/10/22 07:25:38;;;;;;;;;;;;;;;9.18;100.00;100473.66;5040283;28;19940;-74
2023/10/22 07:28:03;;;;;;;;;;;;;;;9.14;100.00;100483.28;5025867;28;19929;-75
2023/10/22 07:30:29;;;;;;;;;;;;;;;9.12;100.00;100485.06;5053954;28;19920;-75
2023/10/22 07:32:55;;;;;;;;;;;;;;;9.11;100.00;100482.50;5017565;28;19914;-75
2023/10/22 07:35:21;;;;;;;;;;;;;;;9.11;100.00;100487.69;5022887;28;19925;-75
2023/10/22 07:37:46;;;;;;;;;;;;;;;9.09;100.00;100498.16;5034792;28;19919;-75
2023/10/22 07:40:13;;;;;;;;;;;;;;;9.10;100.00;100506.81;5022584;28;19920;-75
2023/10/22 07:42:38;;;;;;;;;;;;;;;9.09;100.00;100499.88;5030369;28;19916;-75
2023/10/22 07:45:04;;;;;;;;;;;;;;;9.08;100.00;100512.03;5025824;28;20371;-75
2023/10/22 07:47:29;;;;;;;;;;;;;;;9.11;100.00;100514.56;5026707;28;19913;-75
2023/10/22 07:49:54;;;;;;;;;;;;;;;9.17;100.00;100516.16;5037406;28;19921;-75
2023/10/22 07:52:19;;;;;;;;;;;;;;;9.27;100.00;100525.47;5025115;28;20284;-75
2023/10/22 07:54:47;;;;;;;;;;;;;;;9.39;100.00;100524.34;5023563;28;19939;-75
2023/10/22 07:57:12;;;;;;;;;;;;;;;9.49;100.00;100522.38;5016896;28;19909;-74
2023/10/22 07:59:37;;;;;;;;;;;;;;;9.61;100.00;100525.53;5047414;28;19923;-75
2023/10/22 08:02:03;;;;;;;;;;;;;;;9.75;100.00;100530.41;5017517;28;19944;-75
2023/10/22 08:04:28;;;;;;;;;;;;;;;9.88;100.00;100523.13;5009628;28;19997;-75
2023/10/22 08:06:54;;;;;;;;;;;;;;;10.01;100.00;100526.28;5005956;28;19917;-75
2023/10/22 08:09:19;;;;;;;;;;;;;;;10.16;100.00;100530.22;5022646;28;19917;-75
2023/10/22 08:11:44;;;;;;;;;;;;;;;10.24;100.00;100530.88;5019696;28;19913;-74
2023/10/22 08:14:09;;;;;;;;;;;;;;;10.31;100.00;100532.44;5044609;28;19927;-74
2023/10/22 08:16:34;;;;;;;;;;;;;;;10.46;100.00;100537.25;5024035;28;19917;-75
2023/10/22 08:18:59;;;;;;;;;;;;;;;10.51;100.00;100530.13;5044315;28;19917;-75
2023/10/22 08:21:25;;;;;;;;;;;;;;;10.59;100.00;100531.66;5019838;28;19917;-75
2023/10/22 08:23:50;;;;;;;;;;;;;;;10.60;100.00;100546.44;5047331;28;19971;-75
2023/10/22 08:26:15;;;;;;;;;;;;;;;10.65;100.00;100541.91;5015324;28;19921;-75
2023/10/22 08:28:41;;;;;;;;;;;;;;;10.75;100.00;100543.34;5016181;28;19917;-75
2023/10/22 08:31:06;;;;;;;;;;;;;;;10.85;100.00;100555.22;5025509;28;19949;-75
2023/10/22 08:33:31;;;;;;;;;;;;;;;10.94;100.00;100557.56;5019829;28;19917;-75
2023/10/22 08:36:03;;;;;;;;;;;;;;;11.07;100.00;100559.81;5016970;28;19917;-75
2023/10/22 08:38:28;;;;;;;;;;;;;;;11.18;100.00;100558.63;5010136;28;19918;-75
2023/10/22 08:40:53;;;;;;;;;;;;;;;11.38;100.00;100570.16;5021083;28;19917;-74
2023/10/22 08:43:18;;;;;;;;;;;;;;;11.57;100.00;100570.44;5013570;28;19961;-74
2023/10/22 08:45:46;;;;;;;;;;;;;;;11.77;100.00;100562.84;5012448;28;20348;-75
2023/10/22 08:48:11;;;;;;;;;;;;;;;11.97;100.00;100564.84;5015178;28;19967;-75
2023/10/22 08:50:37;;;;;;;;;;;;;;;12.08;100.00;100574.91;5013194;28;20013;-74
2023/10/22 08:53:02;;;;;;;;;;;;;;;12.18;100.00;100573.69;5035850;28;20384;-74
2023/10/22 08:55:29;;;;;;;;;;;;;;;12.21;100.00;100583.19;5020250;28;19918;-74
2023/10/22 08:57:54;;;;;;;;;;;;;;;12.23;100.00;100571.78;5041966;28;20053;-74
2023/10/22 09:00:20;;;;;;;;;;;;;;;12.26;100.00;100578.63;5030260;28;19996;-75
2023/10/22 09:02:45;;;;;;;;;;;;;;;12.28;100.00;100569.84;5033953;28;19924;-74
2023/10/22 09:05:11;;;;;;;;;;;;;;;12.30;100.00;100582.88;5014639;28;19925;-74
2023/10/22 09:07:52;;;;;;;;;;;;;;;12.27;100.00;100589.06;5020128;28;20400;-74
2023/10/22 09:10:25;;;;;;;;;;;;;;;12.28;100.00;100585.53;5003355;28;19962;-74
2023/10/22 09:12:50;;;;;;;;;;;;;;;12.35;100.00;100592.25;5030120;28;19913;-76
2023/10/22 09:15:16;;;;;;;;;;;;;;;12.44;100.00;100585.00;5026519;28;20027;-74
2023/10/22 09:17:42;;;;;;;;;;;;;;;12.48;100.00;100591.81;5023207;28;19932;-75
2023/10/22 09:20:21;;;;;;;;;;;;;;;12.50;100.00;100590.03;5036525;28;19917;-75
2023/10/22 09:22:46;;;;;;;;;;;;;;;12.55;100.00;100595.91;5017684;28;19960;-74
2023/10/22 09:25:12;;;;;;;;;;;;;;;12.65;100.00;100594.69;5022106;28;20449;-74
2023/10/22 09:27:39;;;;;;;;;;;;;;;12.69;100.00;100596.31;5026240;28;20001;-74
2023/10/22 09:30:05;;;;;;;;;;;;;;;12.70;100.00;100608.47;5042667;28;19924;-74
2023/10/22 09:32:30;;;;;;;;;;;;;;;12.73;100.00;100595.28;5019612;28;19921;-74
2023/10/22 09:35:10;;;;;;;;;;;;;;;12.74;100.00;100606.59;5022707;28;20057;-74
2023/10/22 09:37:47;;;;;;;;;;;;;;;12.69;100.00;100614.63;5040696;28;19919;-74
2023/10/22 09:40:19;;;;;;;;;;;;;;;12.76;100.00;100610.88;5025736;28;20003;-74
2023/10/22 09:42:46;;;;;;;;;;;;;;;12.85;100.00;100613.16;5061927;28;19924;-75
2023/10/22 09:45:11;;;;;;;;;;;;;;;12.90;100.00;100623.44;5016457;28;19917;-75
2023/10/22 09:47:38;;;;;;;;;;;;;;;12.93;100.00;100627.72;5060580;28;20267;-74
2023/10/22 09:50:04;;;;;;;;;;;;;;;12.85;100.00;100634.09;5017801;28;19921;-74
2023/10/22 09:52:32;;;;;;;;;;;;;;;12.75;100.00;100632.72;5026247;28;20365;-74
2023/10/22 09:54:59;;;;;;;;;;;;;;;12.67;100.00;100645.19;5033390;28;19917;-74
2023/10/22 09:57:31;;;;;;;;;;;;;;;12.65;100.00;100649.59;5022088;28;19964;-74
2023/10/22 10:00:01;;;;;;;;;;;;;;;12.68;100.00;100641.66;5024809;28;19961;-74
2023/10/22 10:02:27;;;;;;;;;;;;;;;12.72;100.00;100642.41;5027525;28;19917;-74
2023/10/22 10:04:54;;;;;;;;;;;;;;;12.75;100.00;100644.91;5028515;28;19975;-74
2023/10/22 10:07:22;;;;;;;;;;;;;;;12.84;100.00;100637.56;5005004;28;19952;-74
2023/10/22 10:09:47;;;;;;;;;;;;;;;12.95;100.00;100646.81;5010514;28;19914;-73
2023/10/22 10:12:13;;;;;;;;;;;;;;;13.02;100.00;100646.53;5011989;28;20456;-73
2023/10/22 10:14:42;;;;;;;;;;;;;;;12.95;100.00;100638.94;5046238;28;19924;-74
2023/10/22 10:17:07;;;;;;;;;;;;;;;12.93;100.00;100648.63;5028165;28;20341;-73
2023/10/22 10:19:33;;;;;;;;;;;;;;;12.94;100.00;100651.19;5019391;28;19921;-73
2023/10/22 10:21:58;;;;;;;;;;;;;;;12.93;100.00;100654.72;5042276;28;19915;-73
2023/10/22 10:24:24;;;;;;;;;;;;;;;12.96;100.00;100664.22;5012936;28;20015;-73
2023/10/22 10:26:51;;;;;;;;;;;;;;;13.01;100.00;100657.91;5005473;28;19941;-73
2023/10/22 10:29:17;;;;;;;;;;;;;;;13.03;100.00;100666.56;5014178;28;19924;-73
2023/10/22 10:31:47;;;;;;;;;;;;;;;13.04;100.00;100670.03;5011408;28;19917;-73
2023/10/22 10:34:32;;;;;;;;;;;;;;;13.06;100.00;100676.06;5006308;28;19918;-73
2023/10/22 10:37:07;;;;;;;;;;;;;;;13.13;100.00;100673.16;5017130;28;19918;-73
2023/10/22 10:39:42;;;;;;;;;;;;;;;13.26;100.00;100681.44;5024678;28;19927;-73
2023/10/22 10:42:09;;;;;;;;;;;;;;;13.35;100.00;100677.66;5016655;28;19917;-74
2023/10/22 10:44:54;;;;;;;;;;;;;;;13.38;100.00;100672.28;5029562;28;19920;-74
2023/10/22 10:47:19;;;;;;;;;;;;;;;13.43;100.00;100672.97;5037210;28;20291;-74
2023/10/22 10:50:04;;;;;;;;;;;;;;;13.45;100.00;100675.53;5045796;28;20381;-74
2023/10/22 10:52:30;;;;;;;;;;;;;;;13.50;100.00;100677.03;5031638;28;20000;-74
2023/10/22 10:54:59;;;;;;;;;;;;;;;13.62;100.00;100675.72;5025722;28;20292;-73
2023/10/22 10:57:34;;;;;;;;;;;;;;;13.69;100.00;100676.34;5020501;28;19917;-74
2023/10/22 11:00:00;;;;;;;;;;;;;;;13.79;100.00;100680.31;5021927;28;19968;-73
2023/10/22 11:02:25;;;;;;;;;;;;;;;13.85;100.00;100673.97;5021844;28;19996;-74
2023/10/22 11:04:50;;;;;;;;;;;;;;;13.96;100.00;100677.00;5033719;28;20028;-74
2023/10/22 11:07:18;;;;;;;;;;;;;;;14.10;100.00;100674.72;5024181;28;19924;-73
2023/10/22 11:09:43;;;;;;;;;;;;;;;14.32;100.00;100682.53;5047737;28;19940;-73
2023/10/22 11:12:08;;;;;;;;;;;;;;;14.44;100.00;100679.41;5024661;28;20439;-74
2023/10/22 11:14:34;;;;;;;;;;;;;;;14.52;100.00;100684.38;5022982;28;20361;-74
2023/10/22 11:16:59;;;;;;;;;;;;;;;14.57;100.00;100681.53;5031425;28;19924;-74
2023/10/22 11:19:26;;;;;;;;;;;;;;;14.50;100.00;100684.41;5048325;28;19917;-74
2023/10/22 11:21:54;;;;;;;;;;;;;;;14.37;100.00;100693.69;5033095;28;19924;-73
2023/10/22 11:24:20;;;;;;;;;;;;;;;14.27;100.00;100689.75;5048326;28;19960;-74
2023/10/22 11:26:47;;;;;;;;;;;;;;;14.31;100.00;100688.69;5034822;28;20281;-74
2023/10/22 11:29:12;;;;;;;;;;;;;;;14.35;100.00;100695.50;5048470;28;20289;-73
2023/10/22 11:31:37;;;;;;;;;;;;;;;14.29;100.00;100701.88;5034756;28;19917;-74
2023/10/22 11:34:15;;;;;;;;;;;;;;;14.14;100.00;100704.28;5020724;28;19928;-74
2023/10/22 11:36:40;;;;;;;;;;;;;;;13.99;100.00;100705.72;5010852;28;19942;-73
2023/10/22 11:39:19;;;;;;;;;;;;;;;13.91;100.00;100705.19;5041229;28;20361;-74
2023/10/22 11:41:44;;;;;;;;;;;;;;;13.85;100.00;100715.91;5009566;28;19928;-74
2023/10/22 11:44:10;;;;;;;;;;;;;;;13.76;100.00;100712.72;5042434;28;19925;-74
2023/10/22 11:46:41;;;;;;;;;;;;;;;13.75;100.00;100718.03;5019100;28;20341;-73
2023/10/22 11:49:06;;;;;;;;;;;;;;;13.80;100.00;100723.97;5031583;28;20276;-73
2023/10/22 11:51:42;;;;;;;;;;;;;;;13.81;100.00;100723.88;5018072;28;19917;-73
2023/10/22 11:54:07;;;;;;;;;;;;;;;13.73;100.00;100731.19;5043060;28;20287;-73
2023/10/22 11:56:32;;;;;;;;;;;;;;;13.61;100.00;100739.53;5027080;28;20008;-74
2023/10/22 11:58:58;;;;;;;;;;;;;;;13.56;100.00;100738.81;5025619;28;19920;-74
2023/10/22 12:01:23;;;;;;;;;;;;;;;13.66;100.00;100737.56;5028787;28;20319;-74
2023/10/22 12:03:48;;;;;;;;;;;;;;;13.90;100.00;100735.78;5044028;28;19970;-74
2023/10/22 12:06:13;;;;;;;;;;;;;;;14.10;100.00;100735.00;5013136;28;19913;-74
2023/10/22 12:08:38;;;;;;;;;;;;;;;14.14;100.00;100739.19;5034032;28;19924;-74
2023/10/22 12:11:04;;;;;;;;;;;;;;;14.05;100.00;100750.03;5005740;28;20068;-74
2023/10/22 12:13:29;;;;;;;;;;;;;;;13.77;100.00;100748.50;5004398;28;20004;-74
2023/10/22 12:15:54;;;;;;;;;;;;;;;13.42;100.00;100744.59;5010866;28;20258;-77
2023/10/22 12:18:19;;;;;;;;;;;;;;;13.37;100.00;100750.88;5029328;28;19927;-76
2023/10/22 12:20:45;;;;;;;;;;;;;;;13.53;100.00;100749.41;5014077;28;19933;-77
2023/10/22 12:23:11;;;;;;;;;;;;;;;13.73;100.00;100752.16;5034037;28;19921;-75
2023/10/22 12:25:36;;;;;;;;;;;;;;;13.98;100.00;100756.44;5016817;28;19924;-76
2023/10/22 12:28:01;;;;;;;;;;;;;;;14.26;100.00;100759.69;5023033;28;19917;-75